Time;durP1;ratioP1;P1;durP2;ratioP2;P2;SDS_P1;SDS_P2;PMS_P1;PMS_P2;Temp;Humidity;BMP_temperature;BMP_pressure;BME280_temperature;BME280_humidity;BME280_pressure;Samples;Min_cycle;Max_cycle;Signal;HPM_P1;HPM_P2
2021/08/13 00:00:10;;;;;;;5.38;4.88;;;22.40;64.50;;;;;;5113549;28;20173;-64
2021/08/13 00:02:35;;;;;;;5.18;4.68;;;22.40;64.50;;;;;;5113098;28;20351;-65
2021/08/13 00:05:01;;;;;;;5.03;4.45;;;22.40;64.50;;;;;;5112122;28;20169;-65
2021/08/13 00:07:26;;;;;;;5.20;4.70;;;22.40;64.50;;;;;;5112375;28;20180;-65
2021/08/13 00:09:52;;;;;;;4.03;3.72;;;22.40;64.50;;;;;;5112832;28;20180;-64
2021/08/13 00:12:17;;;;;;;4.63;4.22;;;22.40;64.60;;;;;;5111768;28;20212;-64
2021/08/13 00:14:43;;;;;;;9.07;4.72;;;22.40;64.50;;;;;;5112903;28;20180;-64
2021/08/13 00:17:08;;;;;;;6.32;4.78;;;22.40;64.50;;;;;;5112703;28;20176;-64
2021/08/13 00:19:34;;;;;;;5.10;4.40;;;22.40;64.70;;;;;;5111634;28;20587;-64
2021/08/13 00:21:59;;;;;;;4.75;4.25;;;22.40;64.60;;;;;;5112360;28;20328;-63
2021/08/13 00:24:25;;;;;;;4.78;4.38;;;22.40;64.50;;;;;;5112529;28;20214;-63
2021/08/13 00:26:50;;;;;;;5.07;4.50;;;22.40;64.60;;;;;;5112168;28;20229;-64
2021/08/13 00:29:16;;;;;;;4.80;4.40;;;22.40;64.50;;;;;;5112261;28;20535;-64
2021/08/13 00:31:41;;;;;;;4.85;4.45;;;22.40;64.60;;;;;;5112558;28;20205;-64
2021/08/13 00:34:07;;;;;;;5.03;4.63;;;22.40;64.50;;;;;;5111850;28;20169;-65
2021/08/13 00:36:32;;;;;;;5.15;4.68;;;22.40;65.40;;;;;;5112156;28;20631;-65
2021/08/13 00:39:02;;;;;;;4.57;4.18;;;22.40;64.50;;;;;;5112656;28;20184;-65
2021/08/13 00:41:27;;;;;;;7.18;4.60;;;22.40;64.70;;;;;;5111621;28;20185;-64
2021/08/13 00:43:53;;;;;;;5.10;4.60;;;22.40;64.60;;;;;;5112245;28;20180;-66
2021/08/13 00:46:18;;;;;;;4.53;4.13;;;22.40;64.60;;;;;;5111451;28;20181;-65
2021/08/13 00:48:44;;;;;;;4.40;4.10;;;22.40;64.60;;;;;;5112281;28;20169;-65
2021/08/13 00:51:09;;;;;;;4.55;4.03;;;22.40;64.60;;;;;;5112202;28;20318;-67
2021/08/13 00:53:35;;;;;;;4.80;4.40;;;22.40;64.70;;;;;;5111498;28;20222;-66
2021/08/13 00:56:00;;;;;;;4.60;4.20;;;22.40;64.50;;;;;;5096254;28;20181;-66
2021/08/13 00:58:26;;;;;;;4.50;4.13;;;22.40;64.60;;;;;;5080995;28;20222;-64
2021/08/13 01:00:51;;;;;;;4.85;4.40;;;22.40;64.60;;;;;;5115629;28;20539;-66
2021/08/13 01:03:17;;;;;;;4.78;4.38;;;22.30;64.50;;;;;;5116279;28;20192;-67
2021/08/13 01:05:43;;;;;;;4.55;4.15;;;22.30;64.50;;;;;;5098052;28;20192;-66
2021/08/13 01:08:08;;;;;;;4.75;4.30;;;22.30;64.50;;;;;;5115762;28;20204;-66
2021/08/13 01:10:40;;;;;;;4.68;4.20;;;22.30;65.50;;;;;;5115982;28;22143;-66
2021/08/13 01:13:12;;;;;;;4.60;4.20;;;22.30;64.50;;;;;;5081895;28;20202;-66
2021/08/13 01:15:41;;;;;;;5.03;4.20;;;22.30;64.50;;;;;;5115266;28;20347;-66
2021/08/13 01:18:11;;;;;;;4.95;4.45;;;22.30;64.50;;;;;;5080979;28;20209;-65
2021/08/13 01:20:51;;;;;;;4.28;3.88;;;22.30;64.50;;;;;;5097888;28;20169;-66
2021/08/13 01:23:23;;;;;;;4.85;4.25;;;22.30;64.80;;;;;;5097139;28;20220;-65
2021/08/13 01:25:51;;;;;;;4.50;4.10;;;22.30;64.50;;;;;;5081198;28;20181;-66
2021/08/13 01:28:25;;;;;;;4.30;3.90;;;22.30;64.60;;;;;;5080778;28;20620;-66
2021/08/13 01:30:51;;;;;;;5.28;4.78;;;22.30;64.40;;;;;;5115656;28;20241;-67
2021/08/13 01:33:16;;;;;;;4.40;4.00;;;22.30;64.40;;;;;;5097307;28;20177;-67
2021/08/13 01:35:46;;;;;;;4.93;4.53;;;22.30;64.70;;;;;;5079981;28;20209;-67
2021/08/13 01:38:16;;;;;;;4.85;4.35;;;22.30;64.60;;;;;;5097603;28;20608;-67
2021/08/13 01:40:43;;;;;;;4.20;3.90;;;22.30;64.60;;;;;;5081139;28;20173;-66
2021/08/13 01:43:09;;;;;;;4.78;4.20;;;22.30;64.50;;;;;;5096621;28;20639;-66
2021/08/13 01:45:35;;;;;;;4.55;4.15;;;22.30;64.50;;;;;;5080392;28;20804;-66
2021/08/13 01:48:01;;;;;;;4.38;4.00;;;22.30;64.50;;;;;;5097381;28;20623;-66
2021/08/13 01:50:27;;;;;;;4.68;4.28;;;22.30;64.50;;;;;;5096362;28;20169;-66
2021/08/13 01:52:53;;;;;;;4.28;3.88;;;22.30;64.50;;;;;;5097193;28;20592;-67
2021/08/13 01:55:19;;;;;;;4.55;4.10;;;22.30;64.50;;;;;;5115269;28;20179;-67
2021/08/13 01:57:45;;;;;;;4.57;3.88;;;22.30;64.60;;;;;;5096353;28;20169;-67
2021/08/13 02:00:12;;;;;;;4.50;4.10;;;22.30;64.50;;;;;;5115211;28;20630;-66
2021/08/13 02:02:38;;;;;;;4.43;4.13;;;22.20;64.50;;;;;;5080040;28;20180;-67
2021/08/13 02:05:04;;;;;;;4.28;3.88;;;22.20;64.40;;;;;;5114566;28;20165;-66
2021/08/13 02:07:31;;;;;;;4.43;4.10;;;22.20;64.50;;;;;;5095640;28;20635;-67
2021/08/13 02:09:56;;;;;;;4.75;4.35;;;22.20;64.40;;;;;;5096881;28;20510;-67
2021/08/13 02:12:22;;;;;;;3.92;3.60;;;22.20;64.50;;;;;;5079082;28;20687;-67
2021/08/13 02:14:47;;;;;;;4.07;3.70;;;22.20;64.60;;;;;;5080144;28;20180;-68
2021/08/13 02:17:16;;;;;;;4.28;3.72;;;22.20;64.40;;;;;;5097030;28;20703;-65
2021/08/13 02:20:07;;;;;;;4.45;4.07;;;22.20;64.40;;;;;;5079320;28;20196;-65
2021/08/13 02:22:33;;;;;;;4.55;4.10;;;22.20;64.60;;;;;;5100500;28;20251;-65
2021/08/13 02:24:59;;;;;;;6.30;3.92;;;22.20;64.40;;;;;;5114301;28;20227;-65
2021/08/13 02:27:26;;;;;;;4.28;3.88;;;22.20;64.40;;;;;;5114643;28;20711;-65
2021/08/13 02:29:52;;;;;;;4.55;4.15;;;22.20;64.50;;;;;;5096740;28;20653;-66
2021/08/13 02:32:18;;;;;;;4.40;4.00;;;22.20;64.40;;;;;;5113574;28;20287;-66
2021/08/13 02:34:43;;;;;;;4.40;3.67;;;22.20;64.60;;;;;;5114892;28;20169;-66
2021/08/13 02:37:25;;;;;;;4.40;4.00;;;22.20;64.40;;;;;;5114478;28;20177;-66
2021/08/13 02:39:55;;;;;;;4.03;3.58;;;22.20;64.70;;;;;;5080002;28;20177;-66
2021/08/13 02:42:26;;;;;;;4.03;3.72;;;22.20;64.40;;;;;;5095829;28;20692;-66
2021/08/13 02:44:52;;;;;;;3.85;3.55;;;22.20;64.40;;;;;;5096886;28;20194;-66
2021/08/13 02:47:18;;;;;;;4.20;3.80;;;22.20;64.70;;;;;;5095283;28;20188;-65
2021/08/13 02:49:53;;;;;;;4.03;3.72;;;22.20;64.50;;;;;;5079116;28;20169;-66
2021/08/13 02:52:21;;;;;;;4.28;3.88;;;22.20;64.50;;;;;;5095521;28;20608;-66
2021/08/13 02:54:47;;;;;;;4.18;3.78;;;22.20;64.40;;;;;;5078658;28;20628;-66
2021/08/13 02:57:12;;;;;;;5.47;4.47;;;22.20;65.40;;;;;;5079012;28;20181;-66
2021/08/13 02:59:38;;;;;;;4.28;3.88;;;22.20;64.40;;;;;;5095512;28;20172;-66
2021/08/13 03:02:04;;;;;;;3.90;3.60;;;22.20;64.60;;;;;;5095152;28;20198;-66
2021/08/13 03:04:30;;;;;;;3.67;3.33;;;22.20;64.60;;;;;;5078519;28;20268;-66
2021/08/13 03:06:56;;;;;;;4.28;3.88;;;22.20;64.50;;;;;;5095315;28;20173;-65
2021/08/13 03:09:23;;;;;;;4.30;3.28;;;22.10;64.40;;;;;;5078762;28;20612;-67
2021/08/13 03:11:48;;;;;;;4.22;3.92;;;22.10;64.40;;;;;;5095901;28;20624;-66
2021/08/13 03:14:14;;;;;;;5.90;4.30;;;22.10;64.40;;;;;;5078014;28;20249;-65
2021/08/13 03:16:40;;;;;;;4.38;3.97;;;22.10;64.40;;;;;;5113453;28;20177;-65
2021/08/13 03:19:06;;;;;;;5.07;3.53;;;22.10;64.40;;;;;;5095432;28;20242;-65
2021/08/13 03:21:31;;;;;;;4.38;4.07;;;22.10;64.40;;;;;;5094437;28;20303;-65
2021/08/13 03:23:57;;;;;;;3.92;3.60;;;22.10;64.40;;;;;;5095533;28;20169;-65
2021/08/13 03:26:24;;;;;;;4.07;3.78;;;22.10;64.40;;;;;;5078321;28;20335;-65
2021/08/13 03:28:49;;;;;;;4.50;4.10;;;22.10;64.40;;;;;;5112809;28;20220;-66
2021/08/13 03:31:34;;;;;;;4.10;3.80;;;22.10;64.40;;;;;;5095144;28;20232;-66
2021/08/13 03:33:59;;;;;;;3.97;3.53;;;22.10;64.40;;;;;;5113608;28;20264;-66
2021/08/13 03:36:25;;;;;;;3.80;3.50;;;22.10;64.40;;;;;;5112432;28;20259;-66
2021/08/13 03:38:51;;;;;;;4.47;3.72;;;22.10;64.50;;;;;;5112773;28;20181;-66
2021/08/13 03:41:17;;;;;;;4.28;3.80;;;22.10;64.50;;;;;;5113082;28;20180;-67
2021/08/13 03:43:43;;;;;;;4.43;3.97;;;22.10;64.40;;;;;;5112544;28;20237;-66
2021/08/13 03:46:08;;;;;;;4.00;3.40;;;22.10;64.40;;;;;;5112974;28;20267;-66
2021/08/13 03:48:34;;;;;;;3.65;3.35;;;22.10;64.50;;;;;;5113041;28;20636;-66
2021/08/13 03:50:59;;;;;;;4.55;4.15;;;22.10;64.60;;;;;;5112389;28;20216;-66
2021/08/13 03:53:25;;;;;;;3.80;3.50;;;22.10;64.40;;;;;;5112810;28;20173;-66
2021/08/13 03:55:50;;;;;;;4.40;4.00;;;22.00;64.50;;;;;;5113020;28;20228;-65
2021/08/13 03:58:16;;;;;;;4.55;3.90;;;22.10;64.40;;;;;;5111941;28;20699;-66
2021/08/13 04:00:41;;;;;;;3.67;3.38;;;22.10;64.50;;;;;;5112770;28;20184;-66
2021/08/13 04:03:07;;;;;;;5.13;3.60;;;22.00;64.40;;;;;;5112457;28;20169;-66
2021/08/13 04:05:32;;;;;;;3.95;3.65;;;22.00;64.40;;;;;;5112329;28;20638;-67
2021/08/13 04:07:58;;;;;;;3.63;3.33;;;22.00;64.40;;;;;;5112600;28;20180;-67
2021/08/13 04:10:26;;;;;;;4.90;3.85;;;22.10;64.40;;;;;;5111670;28;20181;-67
2021/08/13 04:12:51;;;;;;;4.18;3.72;;;22.00;64.40;;;;;;5112606;28;20181;-67
2021/08/13 04:15:17;;;;;;;3.67;3.38;;;22.00;64.40;;;;;;5112153;28;20173;-66
2021/08/13 04:17:42;;;;;;;4.15;3.75;;;22.00;64.40;;;;;;5112008;28;20582;-66
2021/08/13 04:20:08;;;;;;;3.80;3.50;;;22.00;64.40;;;;;;5112580;28;20291;-66
2021/08/13 04:22:34;;;;;;;3.85;3.55;;;22.00;64.40;;;;;;5111963;28;20357;-66
2021/08/13 04:24:59;;;;;;;3.90;3.60;;;22.00;64.40;;;;;;5111826;28;20212;-65
2021/08/13 04:27:25;;;;;;;4.43;4.05;;;22.00;64.50;;;;;;5112255;28;20256;-67
2021/08/13 04:29:51;;;;;;;3.70;3.40;;;22.00;64.40;;;;;;5112031;28;20176;-68
2021/08/13 04:32:17;;;;;;;4.00;3.70;;;22.00;64.40;;;;;;5111503;28;20212;-67
2021/08/13 04:34:42;;;;;;;4.25;3.88;;;22.00;64.40;;;;;;5112534;28;20241;-67
2021/08/13 04:37:08;;;;;;;4.03;3.72;;;22.00;64.40;;;;;;5112138;28;20184;-67
2021/08/13 04:39:33;;;;;;;3.67;3.38;;;22.00;64.40;;;;;;5111192;28;20560;-67
2021/08/13 04:41:59;;;;;;;3.45;3.17;;;22.00;64.40;;;;;;5112093;28;20658;-67
2021/08/13 04:44:24;;;;;;;4.20;3.85;;;22.00;64.40;;;;;;5111686;28;20172;-67
2021/08/13 04:46:50;;;;;;;4.70;3.65;;;22.00;64.40;;;;;;5111636;28;20184;-67
2021/08/13 04:49:15;;;;;;;3.95;3.65;;;22.00;64.40;;;;;;5111995;28;20165;-67
2021/08/13 04:51:41;;;;;;;4.25;3.75;;;22.00;64.40;;;;;;5112064;28;20300;-67
2021/08/13 04:54:07;;;;;;;4.10;3.70;;;22.00;64.40;;;;;;5111466;28;20648;-66
2021/08/13 04:56:32;;;;;;;3.80;3.50;;;22.10;64.40;;;;;;5111678;28;20276;-66
2021/08/13 04:58:58;;;;;;;3.88;3.58;;;22.00;64.30;;;;;;5112453;28;20191;-66
2021/08/13 05:01:24;;;;;;;3.80;3.50;;;22.00;64.40;;;;;;5111255;28;20276;-66
2021/08/13 05:03:49;;;;;;;3.70;3.30;;;22.00;64.20;;;;;;5111893;28;20259;-67
2021/08/13 05:06:18;;;;;;;4.43;3.35;;;22.00;64.20;;;;;;5112066;28;20180;-66
2021/08/13 05:08:44;;;;;;;4.32;3.92;;;22.00;64.30;;;;;;5111144;28;20636;-67
2021/08/13 05:11:09;;;;;;;3.72;3.42;;;22.00;64.20;;;;;;5111939;28;20205;-67
2021/08/13 05:13:35;;;;;;;4.07;3.60;;;22.00;64.20;;;;;;5110913;28;20184;-67
2021/08/13 05:16:00;;;;;;;3.80;3.50;;;22.00;64.20;;;;;;5111734;28;20176;-66
2021/08/13 05:18:26;;;;;;;4.15;3.75;;;22.10;64.30;;;;;;5111732;28;20180;-66
2021/08/13 05:20:51;;;;;;;3.85;3.55;;;22.10;64.30;;;;;;5111313;28;20173;-65
2021/08/13 05:23:17;;;;;;;4.07;3.78;;;22.10;64.20;;;;;;5111212;28;20221;-66
2021/08/13 05:25:42;;;;;;;4.40;4.00;;;22.00;64.20;;;;;;5111766;28;20169;-66
2021/08/13 05:28:08;;;;;;;3.67;3.38;;;22.10;64.30;;;;;;5110894;28;20219;-66
2021/08/13 05:30:33;;;;;;;4.07;3.78;;;22.10;64.40;;;;;;5111529;28;20177;-67
2021/08/13 05:33:00;;;;;;;3.97;3.67;;;22.10;64.30;;;;;;5111870;28;20260;-67
2021/08/13 05:35:25;;;;;;;3.88;3.58;;;22.10;64.30;;;;;;5110736;28;20173;-67
2021/08/13 05:37:51;;;;;;;4.75;4.35;;;22.10;64.30;;;;;;5111588;28;20179;-67
2021/08/13 05:40:16;;;;;;;4.00;3.67;;;22.10;64.20;;;;;;5111323;28;20570;-66
2021/08/13 05:42:42;;;;;;;4.10;3.80;;;22.10;64.20;;;;;;5112110;28;20173;-66
2021/08/13 05:45:08;;;;;;;4.03;3.65;;;22.10;64.20;;;;;;5115241;28;20169;-66
2021/08/13 05:47:43;;;;;;;4.15;3.85;;;22.10;64.20;;;;;;5115103;28;20173;-66
2021/08/13 05:50:10;;;;;;;4.93;4.18;;;22.10;64.20;;;;;;5114735;28;20175;-67
2021/08/13 05:52:35;;;;;;;3.38;3.17;;;22.10;64.20;;;;;;5114867;28;20299;-67
2021/08/13 05:55:01;;;;;;;4.28;3.97;;;22.10;64.20;;;;;;5115035;28;20192;-67
2021/08/13 05:57:27;;;;;;;4.22;3.83;;;22.20;64.20;;;;;;5114050;28;20619;-66
2021/08/13 05:59:52;;;;;;;4.25;3.85;;;22.20;64.20;;;;;;5115396;28;20168;-67
2021/08/13 06:02:18;;;;;;;4.72;3.85;;;22.20;64.10;;;;;;5114740;28;20180;-66
2021/08/13 06:04:44;;;;;;;4.13;3.72;;;22.20;64.10;;;;;;5114432;28;20481;-68
2021/08/13 06:07:09;;;;;;;4.00;3.70;;;22.20;64.20;;;;;;5114967;28;20253;-67
2021/08/13 06:09:35;;;;;;;5.35;3.92;;;22.20;64.20;;;;;;5114471;28;20233;-67
2021/08/13 06:12:00;;;;;;;4.15;3.78;;;22.20;64.20;;;;;;5113900;28;20647;-67
2021/08/13 06:14:26;;;;;;;4.47;4.07;;;22.20;64.20;;;;;;5114358;28;20184;-68
2021/08/13 06:16:51;;;;;;;4.75;4.35;;;22.20;64.20;;;;;;5113914;28;20166;-67
2021/08/13 06:19:17;;;;;;;3.92;3.63;;;22.20;64.20;;;;;;5114269;28;20264;-66
2021/08/13 06:21:42;;;;;;;3.97;3.67;;;22.20;64.20;;;;;;5114368;28;20184;-66
2021/08/13 06:24:08;;;;;;;4.60;4.00;;;22.20;64.50;;;;;;5113693;28;20173;-65
2021/08/13 06:26:33;;;;;;;4.90;4.50;;;22.20;64.20;;;;;;5114281;28;20180;-66
2021/08/13 06:28:59;;;;;;;4.70;4.18;;;22.20;64.20;;;;;;5114719;28;20493;-66
2021/08/13 06:31:25;;;;;;;4.15;3.70;;;22.20;64.20;;;;;;5113701;28;20216;-67
2021/08/13 06:33:50;;;;;;;3.70;3.40;;;22.20;64.20;;;;;;5114657;28;20196;-67
2021/08/13 06:36:16;;;;;;;4.47;4.05;;;22.20;64.20;;;;;;5114456;28;20623;-66
2021/08/13 06:38:41;;;;;;;4.40;4.10;;;22.20;64.20;;;;;;5113881;28;20632;-66
2021/08/13 06:41:07;;;;;;;4.75;4.35;;;22.20;64.20;;;;;;5114542;28;20562;-67
2021/08/13 06:43:32;;;;;;;4.13;3.83;;;22.20;64.20;;;;;;5114368;28;20218;-65
2021/08/13 06:45:58;;;;;;;4.20;3.90;;;22.20;64.20;;;;;;5113766;28;20702;-66
2021/08/13 06:48:23;;;;;;;4.20;3.90;;;22.20;64.20;;;;;;5113961;28;20173;-65
2021/08/13 06:50:49;;;;;;;3.97;3.67;;;22.30;64.20;;;;;;5114170;28;20208;-65
2021/08/13 06:53:14;;;;;;;4.28;3.75;;;22.20;64.20;;;;;;5113091;28;20306;-65
2021/08/13 06:55:40;;;;;;;3.67;3.38;;;22.30;64.20;;;;;;5113737;28;20210;-66
2021/08/13 06:58:06;;;;;;;4.57;4.18;;;22.30;64.20;;;;;;5114088;28;20173;-65
2021/08/13 07:00:31;;;;;;;4.35;3.95;;;22.30;64.20;;;;;;5113269;28;20185;-66
2021/08/13 07:02:57;;;;;;;4.85;4.50;;;22.30;64.20;;;;;;5114071;28;20510;-66
2021/08/13 07:05:22;;;;;;;4.10;3.80;;;22.30;64.20;;;;;;5113550;28;20173;-66
2021/08/13 07:07:48;;;;;;;4.00;3.70;;;22.30;65.00;;;;;;5113026;28;20659;-67
2021/08/13 07:10:13;;;;;;;4.47;3.95;;;22.30;64.20;;;;;;5113670;28;20173;-66
2021/08/13 07:12:39;;;;;;;3.90;3.60;;;22.30;64.10;;;;;;5113502;28;20215;-66
2021/08/13 07:15:05;;;;;;;4.28;3.97;;;22.30;64.10;;;;;;5112960;28;20596;-66
2021/08/13 07:17:31;;;;;;;4.57;4.18;;;22.30;64.10;;;;;;5113439;28;20196;-65
2021/08/13 07:19:56;;;;;;;4.13;3.80;;;22.40;64.00;;;;;;5113649;28;20683;-65
2021/08/13 07:22:22;;;;;;;4.20;3.90;;;22.40;63.90;;;;;;5112352;28;20610;-66
2021/08/13 07:24:47;;;;;;;3.70;3.35;;;22.40;63.90;;;;;;5113655;28;20212;-67
2021/08/13 07:27:13;;;;;;;4.15;3.85;;;22.40;64.00;;;;;;5112974;28;20260;-65
2021/08/13 07:29:38;;;;;;;4.00;3.67;;;22.40;63.90;;;;;;5113186;28;20160;-63
2021/08/13 07:32:04;;;;;;;4.20;3.85;;;22.40;63.90;;;;;;5113483;28;20209;-65
2021/08/13 07:34:29;;;;;;;3.75;3.50;;;22.40;64.00;;;;;;5112493;28;20241;-62
2021/08/13 07:36:55;;;;;;;4.15;3.85;;;22.40;64.20;;;;;;5113549;28;20229;-62
2021/08/13 07:39:20;;;;;;;4.53;3.58;;;22.40;64.10;;;;;;5112879;28;20180;-62
2021/08/13 07:41:46;;;;;;;4.03;3.72;;;22.40;64.10;;;;;;5112482;28;20209;-62
2021/08/13 07:44:11;;;;;;;4.32;3.95;;;22.40;64.10;;;;;;5113114;28;20551;-62
2021/08/13 07:46:37;;;;;;;3.60;3.30;;;22.50;64.10;;;;;;5112805;28;20645;-63
2021/08/13 07:49:02;;;;;;;4.35;3.85;;;22.50;64.10;;;;;;5112454;28;20264;-62
2021/08/13 07:51:28;;;;;;;4.18;3.85;;;22.50;64.10;;;;;;5112844;28;20200;-62
2021/08/13 07:53:53;;;;;;;4.22;3.60;;;22.50;64.10;;;;;;5112897;28;20529;-62
2021/08/13 07:56:19;;;;;;;3.75;3.40;;;22.50;64.00;;;;;;5112050;28;20177;-62
2021/08/13 07:58:45;;;;;;;4.57;3.92;;;22.50;64.00;;;;;;5113066;28;20170;-62
2021/08/13 08:01:10;;;;;;;4.03;3.72;;;22.50;63.90;;;;;;5112826;28;20518;-63
2021/08/13 08:03:36;;;;;;;4.75;4.22;;;22.60;63.90;;;;;;5119069;27;20232;-61
2021/08/13 08:06:04;;;;;;;4.88;4.43;;;22.60;63.90;;;;;;5121175;27;20173;-61
2021/08/13 08:08:29;;;;;;;4.72;4.32;;;22.70;64.00;;;;;;5120467;27;20177;-61
2021/08/13 08:10:55;;;;;;;5.03;4.45;;;22.60;64.10;;;;;;5122022;27;20192;-62
2021/08/13 08:13:20;;;;;;;4.07;3.65;;;22.60;64.00;;;;;;5121340;27;20604;-62
2021/08/13 08:15:46;;;;;;;4.80;4.40;;;22.60;64.20;;;;;;5120824;27;20240;-61
2021/08/13 08:18:11;;;;;;;5.85;3.88;;;22.60;64.20;;;;;;5122137;27;20240;-61
2021/08/13 08:20:37;;;;;;;4.90;3.92;;;22.70;64.20;;;;;;5120673;27;20173;-61
2021/08/13 08:23:02;;;;;;;5.28;3.85;;;22.60;64.20;;;;;;5115614;27;20224;-62
2021/08/13 08:25:29;;;;;;;3.97;3.63;;;22.70;64.20;;;;;;5117092;27;20654;-61
2021/08/13 08:27:55;;;;;;;4.50;4.15;;;22.70;64.10;;;;;;5122952;27;20165;-61
2021/08/13 08:30:20;;;;;;;4.32;3.92;;;22.80;64.00;;;;;;5123117;27;20183;-62
2021/08/13 08:32:46;;;;;;;4.40;3.92;;;22.80;63.90;;;;;;5132985;27;20208;-62
2021/08/13 08:35:11;;;;;;;4.15;3.50;;;22.90;63.90;;;;;;5133004;27;20491;-62
2021/08/13 08:37:53;;;;;;;3.90;3.47;;;22.90;63.90;;;;;;5132013;27;20176;-63
2021/08/13 08:40:26;;;;;;;4.80;3.72;;;22.90;64.00;;;;;;5132372;28;20657;-64
2021/08/13 08:42:58;;;;;;;4.93;4.00;;;22.90;64.10;;;;;;5132821;28;20198;-64
2021/08/13 08:45:30;;;;;;;6.32;3.80;;;22.80;64.30;;;;;;5132000;28;20287;-62
2021/08/13 08:47:59;;;;;;;4.50;3.90;;;22.90;64.20;;;;;;5132866;28;20259;-61
2021/08/13 08:50:26;;;;;;;3.78;3.38;;;22.90;64.20;;;;;;5132634;28;20174;-61
2021/08/13 08:52:51;;;;;;;5.60;4.43;;;22.90;64.20;;;;;;5129007;28;20939;-60
2021/08/13 08:55:17;;;;;;;5.85;4.22;;;23.00;64.20;;;;;;5118818;28;20183;-61
2021/08/13 08:57:44;;;;;;;8.25;3.55;;;22.90;64.20;;;;;;5094140;28;20177;-61
2021/08/13 09:00:10;;;;;;;4.22;3.72;;;23.00;64.30;;;;;;5093143;28;20192;-60
2021/08/13 09:02:35;;;;;;;3.95;3.55;;;23.00;64.20;;;;;;5124982;28;20610;-61
2021/08/13 09:05:01;;;;;;;3.70;3.40;;;23.00;64.20;;;;;;5132493;28;20164;-60
2021/08/13 09:07:27;;;;;;;4.38;3.80;;;23.00;64.20;;;;;;5131908;28;20173;-61
2021/08/13 09:09:53;;;;;;;5.38;3.72;;;23.00;64.30;;;;;;5130092;28;20179;-60
2021/08/13 09:12:18;;;;;;;4.13;3.72;;;23.00;64.20;;;;;;5111729;28;20213;-60
2021/08/13 09:14:44;;;;;;;4.95;3.72;;;23.00;64.30;;;;;;5111500;28;20571;-60
2021/08/13 09:17:10;;;;;;;4.82;3.78;;;23.10;64.20;;;;;;5114123;28;20173;-60
2021/08/13 09:19:46;;;;;;;4.38;3.97;;;23.10;64.20;;;;;;5115220;28;20184;-60
2021/08/13 09:22:16;;;;;;;3.80;3.50;;;23.20;64.20;;;;;;5115887;28;20225;-60
2021/08/13 09:24:44;;;;;;;4.28;3.88;;;23.20;64.20;;;;;;5116189;28;20177;-59
2021/08/13 09:27:17;;;;;;;5.28;4.13;;;23.20;64.10;;;;;;5117522;27;20525;-60
2021/08/13 09:30:14;;;;;;;4.15;3.75;;;23.20;64.90;;;;;;5115776;28;20177;-60
2021/08/13 09:32:41;;;;;;;4.88;4.00;;;23.20;64.00;;;;;;5115512;28;20239;-61
2021/08/13 09:35:07;;;;;;;4.72;3.70;;;23.30;64.00;;;;;;5115349;28;20174;-61
2021/08/13 09:37:34;;;;;;;4.38;3.70;;;23.30;63.90;;;;;;5115176;28;20299;-60
2021/08/13 09:39:59;;;;;;;4.30;3.70;;;23.30;63.90;;;;;;5097488;28;20170;-60
2021/08/13 09:42:32;;;;;;;4.25;3.85;;;23.30;63.80;;;;;;5114822;28;20196;-60
2021/08/13 09:45:03;;;;;;;6.28;4.05;;;23.40;63.80;;;;;;5115584;28;20234;-61
2021/08/13 09:47:37;;;;;;;4.10;3.45;;;23.30;63.90;;;;;;5115175;28;20720;-60
2021/08/13 09:50:03;;;;;;;4.45;3.83;;;23.40;63.90;;;;;;5114808;28;20657;-60
2021/08/13 09:52:29;;;;;;;3.47;3.17;;;23.40;63.90;;;;;;5114869;28;20205;-61
2021/08/13 09:55:07;;;;;;;3.75;3.20;;;23.40;63.90;;;;;;5114680;28;20184;-60
2021/08/13 09:57:46;;;;;;;3.42;3.10;;;23.40;64.00;;;;;;5115066;28;20629;-61
2021/08/13 10:00:16;;;;;;;3.83;3.53;;;23.40;63.90;;;;;;5115428;28;20264;-61
2021/08/13 10:02:43;;;;;;;4.88;3.85;;;23.40;64.00;;;;;;5114718;28;20180;-62
2021/08/13 10:05:16;;;;;;;3.75;3.15;;;23.40;64.10;;;;;;5115146;28;20231;-61
2021/08/13 10:07:48;;;;;;;3.88;3.58;;;23.50;63.90;;;;;;5115258;28;20656;-61
2021/08/13 10:10:14;;;;;;;4.32;3.80;;;23.40;64.00;;;;;;5114360;28;20192;-61
2021/08/13 10:12:44;;;;;;;3.75;3.40;;;23.40;64.10;;;;;;5096392;28;20354;-61
2021/08/13 10:15:10;;;;;;;3.88;3.38;;;23.60;64.20;;;;;;5115129;28;20192;-61
2021/08/13 10:17:35;;;;;;;5.75;3.08;;;23.50;64.20;;;;;;5095644;28;20181;-60
2021/08/13 10:20:01;;;;;;;4.07;3.25;;;23.60;63.90;;;;;;5096923;28;20504;-59
2021/08/13 10:22:26;;;;;;;4.80;3.40;;;23.60;64.10;;;;;;5114160;28;20327;-59
2021/08/13 10:24:52;;;;;;;5.35;3.50;;;23.60;64.00;;;;;;5095700;28;20169;-60
2021/08/13 10:27:18;;;;;;;3.42;3.00;;;23.60;64.10;;;;;;5114700;28;20579;-60
2021/08/13 10:29:47;;;;;;;3.47;3.08;;;23.60;64.10;;;;;;5114120;28;20257;-60
2021/08/13 10:32:13;;;;;;;3.65;3.20;;;23.60;64.10;;;;;;5113816;28;20612;-60
2021/08/13 10:34:38;;;;;;;3.90;3.28;;;23.60;64.10;;;;;;5114391;28;20547;-60
2021/08/13 10:37:10;;;;;;;5.50;3.58;;;23.60;64.00;;;;;;5113739;28;20592;-61
2021/08/13 10:39:35;;;;;;;4.82;3.55;;;23.60;64.00;;;;;;5118061;27;20189;-60
2021/08/13 10:42:02;;;;;;;3.88;2.92;;;23.60;64.00;;;;;;5097018;27;20165;-60
2021/08/13 10:44:31;;;;;;;4.05;3.50;;;23.60;64.10;;;;;;5078500;28;20261;-60
2021/08/13 10:46:59;;;;;;;5.13;3.60;;;23.60;63.90;;;;;;5103032;27;20168;-60
2021/08/13 10:49:24;;;;;;;6.00;3.10;;;23.70;63.90;;;;;;5134587;27;20172;-60
2021/08/13 10:52:03;;;;;;;5.88;3.05;;;23.70;63.70;;;;;;5114659;27;20775;-60
2021/08/13 10:54:37;;;;;;;3.60;3.22;;;23.70;63.80;;;;;;5134507;27;20259;-60
2021/08/13 10:57:03;;;;;;;4.40;3.38;;;23.70;63.70;;;;;;5114320;27;20200;-60
2021/08/13 10:59:41;;;;;;;3.38;3.08;;;23.70;63.70;;;;;;5112907;28;20637;-60
2021/08/13 11:02:16;;;;;;;4.90;3.30;;;23.70;63.40;;;;;;5114228;28;20279;-60
2021/08/13 11:04:46;;;;;;;3.22;2.92;;;23.80;63.30;;;;;;5114107;28;20237;-60
2021/08/13 11:07:12;;;;;;;4.80;3.17;;;23.70;63.30;;;;;;5112984;28;20639;-60
2021/08/13 11:09:38;;;;;;;3.22;2.97;;;23.70;63.40;;;;;;5095331;28;20176;-61
2021/08/13 11:12:10;;;;;;;3.58;3.20;;;23.70;63.50;;;;;;5116600;27;20219;-60
2021/08/13 11:14:46;;;;;;;3.53;3.22;;;23.70;63.40;;;;;;5134197;27;20219;-60
2021/08/13 11:17:41;;;;;;;3.25;3.05;;;23.70;63.60;;;;;;5134440;27;20175;-61
2021/08/13 11:20:08;;;;;;;3.45;3.15;;;23.70;63.50;;;;;;5133247;27;20199;-60
2021/08/13 11:22:35;;;;;;;3.05;2.75;;;23.70;63.50;;;;;;5133485;27;20331;-60
2021/08/13 11:25:03;;;;;;;3.83;3.35;;;23.70;63.50;;;;;;5134020;27;20205;-60
2021/08/13 11:27:28;;;;;;;3.45;3.15;;;23.70;63.50;;;;;;5133224;27;20215;-61
2021/08/13 11:29:54;;;;;;;3.25;2.95;;;23.70;63.40;;;;;;5116000;27;20200;-61
2021/08/13 11:32:19;;;;;;;3.42;3.13;;;23.70;63.40;;;;;;5133812;27;20196;-61
2021/08/13 11:35:06;;;;;;;3.50;3.20;;;23.70;63.50;;;;;;5133157;27;20187;-62
2021/08/13 11:37:37;;;;;;;3.80;3.20;;;23.70;63.50;;;;;;5133533;27;20674;-61
2021/08/13 11:40:11;;;;;;;4.72;3.10;;;23.70;63.50;;;;;;5132750;27;20176;-61
2021/08/13 11:42:37;;;;;;;2.83;2.63;;;23.70;63.40;;;;;;5132646;27;20176;-61
2021/08/13 11:45:05;;;;;;;3.88;2.90;;;23.80;63.30;;;;;;5133424;27;20164;-61
2021/08/13 11:47:30;;;;;;;4.13;3.28;;;23.80;63.30;;;;;;5118121;27;20249;-61
2021/08/13 11:49:56;;;;;;;4.95;3.40;;;23.80;63.20;;;;;;5077913;28;20173;-61
2021/08/13 11:52:23;;;;;;;6.03;2.85;;;23.80;63.30;;;;;;5112629;28;20293;-67
2021/08/13 11:54:49;;;;;;;5.18;3.13;;;23.90;63.10;;;;;;5111978;28;20666;-63
2021/08/13 11:57:16;;;;;;;10.60;3.97;;;23.90;63.00;;;;;;5094538;28;20173;-63
2021/08/13 11:59:42;;;;;;;6.75;3.33;;;23.80;63.00;;;;;;5112566;28;20642;-64
2021/08/13 12:02:08;;;;;;;4.43;3.13;;;23.90;63.00;;;;;;5111915;28;20631;-64
2021/08/13 12:04:33;;;;;;;4.85;3.20;;;23.90;63.00;;;;;;5093866;28;20179;-65
2021/08/13 12:07:09;;;;;;;3.47;3.00;;;23.90;62.90;;;;;;5112406;28;20585;-64
2021/08/13 12:09:42;;;;;;;3.75;2.83;;;23.90;62.90;;;;;;5111596;28;20172;-62
2021/08/13 12:12:12;;;;;;;10.15;3.35;;;23.90;62.90;;;;;;5112433;28;20296;-67
2021/08/13 12:14:38;;;;;;;3.65;2.95;;;24.00;63.00;;;;;;5112482;28;20366;-67
2021/08/13 12:17:04;;;;;;;3.83;3.05;;;23.90;62.80;;;;;;5111702;28;20631;-66
2021/08/13 12:19:29;;;;;;;4.47;2.88;;;24.00;62.90;;;;;;5112559;28;20172;-66
2021/08/13 12:21:57;;;;;;;4.68;3.28;;;24.00;62.80;;;;;;5112165;28;20180;-62
2021/08/13 12:24:33;;;;;;;5.35;3.13;;;24.00;62.90;;;;;;5111540;28;20522;-63
2021/08/13 12:27:01;;;;;;;6.20;3.17;;;24.00;62.90;;;;;;5112366;28;20188;-67
2021/08/13 12:29:27;;;;;;;8.27;3.95;;;24.00;62.90;;;;;;5112134;28;20173;-68
2021/08/13 12:31:54;;;;;;;6.85;3.55;;;24.00;62.70;;;;;;5112040;28;20303;-68
2021/08/13 12:34:21;;;;;;;7.45;3.53;;;24.00;62.60;;;;;;5111882;28;20256;-69
2021/08/13 12:36:46;;;;;;;4.22;3.33;;;24.00;62.60;;;;;;5111548;28;20204;-68
2021/08/13 12:39:22;;;;;;;5.22;2.97;;;24.00;62.60;;;;;;5093934;28;20639;-68
2021/08/13 12:41:48;;;;;;;3.78;2.78;;;24.00;62.60;;;;;;5095303;28;20181;-68
2021/08/13 12:44:13;;;;;;;5.07;3.13;;;24.00;62.60;;;;;;5111693;28;20195;-67
2021/08/13 12:46:39;;;;;;;6.03;2.90;;;24.00;62.60;;;;;;5118414;28;20208;-67